WICT2: Wichita River At Wichita Falls, TX

Data processed at Tue Jun 16 2020 23:35


All information presented herein is the property of the government of the United States of America and may be revised or deleted at any time without prior notice.
Dissemination of this information without the expressed written consent of the Public Affairs Office, Tulsa District U.S. Army Corps of Engineers is strictly prohibited.
These data are gathered electronically and, as presented, have not undergone any form of quality control. These data are not guaranteed to be valid or correct.
Go to home page.
Go to station list.
Go to home page.

Upstream stations:

Downstream station:
Previous Day
Next Day
Current Day
    
SHEF ID:       WICT2     Wichita Rv at Wichita Falls, TX
STATION TYPE:  
Regulating: Stage =    18.50, Flow =     5434

               PRECIP     STAGE  RIV-FLOW  WTR-TEMP   CONDUCT  BAT-LOAD
                   in        ft       cfs         F   umho/cm      volt
              Ccp-Rev   Ccp-Rev   Ccp-Rev   Ccp-Rev   Ccp-Rev   Ccp-Rev
(US/Central)
06/16 00:00      ----      2.72        72     82.35      4776     12.73
06/16 01:00      ----      2.71        71     81.93      4765     12.65
06/16 02:00      ----      2.71        71     81.43      4776     12.65
06/16 03:00      ----      2.72        72     80.83      4782     12.65
06/16 04:00      ----      2.71        71     80.29      4786     12.65
06/16 05:00      ----      2.71        71     79.83      4806     12.57
06/16 06:00      ----      2.68        68     79.47      4843     12.57
06/16 07:00      ----      2.69        69     79.21      4876     12.57
06/16 08:00      ----      2.70        70     79.11      4896     12.57
06/16 09:00      ----      2.71        71     79.25      4899     12.81
06/16 10:00      ----      2.71        71     79.66      4903     13.29
06/16 11:00      ----      2.70        70     80.42      4922     13.29
06/16 12:00      ----      2.72        72     81.34      4941     13.13
06/16 13:00      ----      2.71        71     82.29      4958     13.05
06/16 14:00      ----      2.70        70     83.23      4983     13.05
06/16 15:00      ----      2.68        68     83.97      4992     12.97
06/16 16:00      ----      2.66        66     84.81      4987     12.89
06/16 17:00      ----      2.68        68     85.55      4975     12.89
06/16 18:00      ----      2.65        65     85.73      4987     12.81
06/16 19:00      ----      2.69        69     85.48      4946     12.81
06/16 20:00      ----      2.68        68     85.06      4935     12.73
06/16 21:00      ----      2.67        67     84.52      4928     12.73
06/16 22:00      ----      ----      ----      ----      ----      ----
06/16 23:00      ----      ----      ----      ----      ----      ----